Time;durP1;ratioP1;P1;durP2;ratioP2;P2;SDS_P1;SDS_P2;PMS_P1;PMS_P2;Temp;Humidity;BMP_temperature;BMP_pressure;BME280_temperature;BME280_humidity;BME280_pressure;Samples;Min_cycle;Max_cycle;Signal;HPM_P1;HPM_P2
2021/09/12 00:01:07;;;;;;;;;;;;;;;;;;;;;
2021/09/12 00:03:34;;;;;;;14.65;9.73;;;;;;;8.24;94.54;93350.59;1753266;80;21106;-89
2021/09/12 00:06:01;;;;;;;21.33;11.10;;;;;;;8.26;94.57;93350.39;1748712;80;21101;-90
2021/09/12 00:08:28;;;;;;;16.30;9.50;;;;;;;8.25;94.59;93348.84;1738765;78;21128;-87
2021/09/12 00:10:56;;;;;;;12.63;7.80;;;;;;;8.26;94.51;93349.62;1730785;80;21055;-90
2021/09/12 00:13:22;;;;;;;11.53;6.83;;;;;;;8.24;94.43;93353.30;1750036;80;21112;-87
2021/09/12 00:15:50;;;;;;;16.62;6.08;;;;;;;8.21;94.22;93354.06;1751346;80;21160;-87
2021/09/12 00:18:17;;;;;;;8.35;5.80;;;;;;;8.18;94.15;93345.34;1717561;81;21500;-88
2021/09/12 00:20:45;;;;;;;8.85;5.00;;;;;;;8.17;94.02;93351.92;1703052;82;21018;-88
2021/09/12 00:23:12;;;;;;;9.20;5.70;;;;;;;8.13;94.00;93349.78;1708253;80;21062;-90
2021/09/12 00:25:38;;;;;;;8.30;4.97;;;;;;;8.10;94.22;93343.17;1676417;80;21771;-90
2021/09/12 00:28:06;;;;;;;10.95;5.87;;;;;;;8.09;94.37;93346.28;1732956;80;21549;-89
2021/09/12 00:30:36;;;;;;;10.32;6.67;;;;;;;8.10;94.39;93341.05;1717985;81;21537;-87
2021/09/12 00:33:04;;;;;;;7.90;5.58;;;;;;;8.10;94.38;93342.41;1638062;84;21060;-89
2021/09/12 00:35:31;;;;;;;11.18;5.70;;;;;;;8.08;94.38;93342.77;1693938;81;21037;-89
2021/09/12 00:37:57;;;;;;;7.60;5.30;;;;;;;8.10;94.13;93339.70;1738311;80;21631;-88
2021/09/12 00:40:23;;;;;;;9.85;5.92;;;;;;;8.07;94.05;93342.58;1705285;81;21098;-90
2021/09/12 00:42:50;;;;;;;10.30;6.42;;;;;;;8.07;94.01;93351.28;1747668;80;21076;-89
2021/09/12 00:45:18;;;;;;;12.47;5.45;;;;;;;8.03;93.78;93341.79;1749358;79;21041;-88
2021/09/12 00:47:46;;;;;;;11.80;6.87;;;;;;;8.00;93.89;93340.61;1750543;80;20994;-88
2021/09/12 00:50:15;;;;;;;8.85;5.70;;;;;;;7.97;94.17;93342.75;1746444;80;21059;-91
2021/09/12 00:52:45;;;;;;;10.10;5.65;;;;;;;7.93;94.32;93344.64;1751515;80;20994;-91
2021/09/12 00:55:13;;;;;;;10.30;6.55;;;;;;;7.91;94.41;93344.84;1748267;81;21206;-90
2021/09/12 00:57:43;;;;;;;11.38;7.45;;;;;;;7.89;94.75;93341.72;1748869;80;21076;-91
2021/09/12 01:00:12;;;;;;;9.35;6.45;;;;;;;7.86;95.13;93345.98;1747731;80;21053;-88
2021/09/12 01:02:40;;;;;;;12.82;8.55;;;;;;;7.89;95.41;93345.78;1750916;80;21036;-90
2021/09/12 01:05:07;;;;;;;11.18;7.25;;;;;;;7.85;95.24;93344.98;1752254;80;20979;-91
2021/09/12 01:07:34;;;;;;;10.48;6.25;;;;;;;7.82;95.19;93346.52;1748056;80;21092;-90
2021/09/12 01:10:03;;;;;;;13.90;7.92;;;;;;;7.78;95.28;93351.94;1754521;80;21039;-88
2021/09/12 01:12:31;;;;;;;9.48;6.17;;;;;;;7.75;95.55;93357.33;1751287;80;21062;-90
2021/09/12 01:14:59;;;;;;;9.48;6.33;;;;;;;7.75;95.78;93345.92;1754132;80;20983;-91
2021/09/12 01:17:28;;;;;;;8.95;5.20;;;;;;;7.78;95.75;93348.42;1746834;80;21057;-87
2021/09/12 01:19:55;;;;;;;11.35;5.47;;;;;;;7.77;95.51;93351.72;1729552;80;21124;-91
2021/09/12 01:22:23;;;;;;;7.35;6.15;;;;;;;7.72;95.41;93345.31;1745146;80;21057;-89
2021/09/12 01:24:49;;;;;;;12.85;5.55;;;;;;;7.71;95.61;93348.39;1723602;81;21078;-87
2021/09/12 01:27:16;;;;;;;11.38;5.47;;;;;;;7.70;95.69;93344.91;1745216;80;21044;-89
2021/09/12 01:29:42;;;;;;;10.18;5.20;;;;;;;7.68;95.64;93343.75;1746695;80;21537;-88
2021/09/12 01:32:09;;;;;;;8.75;6.03;;;;;;;7.63;95.71;93345.44;1718771;81;21628;-91
2021/09/12 01:37:07;;;;;;;6.83;5.50;;;;;;;7.53;96.46;93336.12;1746480;80;21299;-88
2021/09/12 01:39:34;;;;;;;8.88;5.75;;;;;;;7.53;96.50;93335.55;1701742;80;21040;-90
2021/09/12 01:42:00;;;;;;;8.78;5.67;;;;;;;7.54;96.47;93330.91;1715598;80;21033;-87
2021/09/12 01:44:28;;;;;;;9.20;5.55;;;;;;;7.51;96.44;93330.30;1737737;80;21058;-91
2021/09/12 01:46:56;;;;;;;11.88;6.10;;;;;;;7.48;96.59;93327.77;1702070;81;21062;-90
2021/09/12 01:49:23;;;;;;;9.25;6.08;;;;;;;7.49;96.55;93332.63;1754493;80;21781;-92
2021/09/12 01:51:52;;;;;;;7.55;4.87;;;;;;;7.48;96.26;93328.34;1727469;81;21080;-89
2021/09/12 01:54:19;;;;;;;9.23;4.72;;;;;;;7.47;96.11;93330.28;1734073;81;21093;-88
2021/09/12 01:56:46;;;;;;;9.15;5.72;;;;;;;7.45;96.02;93327.77;1749188;80;21597;-89
2021/09/12 01:59:12;;;;;;;8.68;4.83;;;;;;;7.39;96.00;93328.69;1750668;80;21165;-89
2021/09/12 02:01:38;;;;;;;11.43;7.15;;;;;;;7.36;96.33;93332.72;1717320;81;21057;-90
2021/09/12 02:04:05;;;;;;;14.68;7.62;;;;;;;7.35;96.43;93331.95;1741204;80;22029;-89
2021/09/12 02:06:33;;;;;;;14.03;9.30;;;;;;;7.34;96.50;93326.34;1745843;80;21633;-89
2021/09/12 02:08:59;;;;;;;16.90;11.03;;;;;;;7.35;96.54;93330.59;1746560;79;21053;-88
2021/09/12 02:11:26;;;;;;;17.80;9.85;;;;;;;7.35;96.43;93331.95;1753631;80;21035;-89
2021/09/12 02:13:53;;;;;;;17.82;11.15;;;;;;;7.34;96.36;93328.28;1747106;80;21019;-90
2021/09/12 02:16:22;;;;;;;18.32;11.03;;;;;;;7.29;96.14;93327.45;1746836;81;21048;-90
2021/09/12 02:18:51;;;;;;;16.50;10.58;;;;;;;7.26;96.17;93332.28;1723185;81;21041;-89
2021/09/12 02:21:19;;;;;;;17.57;10.90;;;;;;;7.22;96.08;93332.83;1747608;80;21568;-89
2021/09/12 02:23:45;;;;;;;15.58;11.08;;;;;;;7.16;95.94;93334.33;1755704;79;20992;-91
2021/09/12 02:26:13;;;;;;;18.65;11.57;;;;;;;7.13;95.88;93338.35;1751751;80;21011;-91
2021/09/12 02:28:40;;;;;;;18.37;11.78;;;;;;;7.06;95.92;93332.30;1751078;80;21113;-91
2021/09/12 02:31:08;;;;;;;14.87;10.58;;;;;;;7.03;96.07;93340.61;1750630;80;21045;-88
2021/09/12 02:33:34;;;;;;;15.68;10.38;;;;;;;7.00;96.05;93330.54;1754315;80;21099;-89
2021/09/12 02:36:02;;;;;;;16.70;10.72;;;;;;;6.98;96.20;93334.17;1748499;80;21293;-90
2021/09/12 02:38:31;;;;;;;12.90;9.40;;;;;;;6.99;96.29;93334.95;1743550;80;21071;-90
2021/09/12 02:40:59;;;;;;;16.93;9.40;;;;;;;6.97;96.08;93335.34;1714655;81;21105;-88
2021/09/12 02:43:27;;;;;;;15.35;9.28;;;;;;;6.95;95.81;93333.56;1750049;80;21166;-90
2021/09/12 02:45:53;;;;;;;19.35;10.08;;;;;;;6.89;95.54;93335.08;1751947;79;21135;-89
2021/09/12 02:48:20;;;;;;;13.25;8.48;;;;;;;6.79;95.66;93334.41;1747994;80;21063;-90
2021/09/12 02:50:47;;;;;;;13.35;8.83;;;;;;;6.68;96.31;93328.12;1749358;80;21121;-88
2021/09/12 02:53:13;;;;;;;12.33;7.28;;;;;;;6.60;96.91;93329.98;1752762;80;21076;-90
2021/09/12 02:55:40;;;;;;;9.10;6.85;;;;;;;6.57;97.53;93328.80;1753704;80;21101;-89
2021/09/12 02:58:06;;;;;;;10.15;6.10;;;;;;;6.60;97.98;93329.98;1759033;78;21811;-90
2021/09/12 03:00:33;;;;;;;13.32;7.28;;;;;;;6.62;98.08;93323.65;1746718;80;21080;-90
2021/09/12 03:03:00;;;;;;;10.80;6.80;;;;;;;6.65;97.88;93328.28;1742345;81;21029;-90
2021/09/12 03:05:26;;;;;;;13.78;7.05;;;;;;;6.68;97.52;93322.72;1755376;81;21037;-90
2021/09/12 03:07:54;;;;;;;8.55;5.97;;;;;;;6.69;96.99;93318.28;1719372;81;21113;-88
2021/09/12 03:10:20;;;;;;;9.53;5.92;;;;;;;6.67;96.62;93323.30;1727518;80;21163;-89
2021/09/12 03:12:48;;;;;;;9.55;6.10;;;;;;;6.63;96.55;93321.14;1742822;79;21079;-88
2021/09/12 03:15:15;;;;;;;7.80;5.28;;;;;;;6.59;96.68;93320.91;1737353;81;21056;-90
2021/09/12 03:17:43;;;;;;;9.23;6.00;;;;;;;6.57;96.89;93322.62;1725849;80;21506;-91
2021/09/12 03:20:11;;;;;;;7.97;6.20;;;;;;;6.53;96.93;93328.56;1753668;80;21058;-90
2021/09/12 03:22:38;;;;;;;10.30;6.85;;;;;;;6.51;96.89;93323.55;1751939;79;21349;-90
2021/09/12 03:25:07;;;;;;;9.83;6.03;;;;;;;6.52;96.59;93325.67;1751248;80;21097;-92
2021/09/12 03:27:34;;;;;;;9.25;6.60;;;;;;;6.49;96.42;93324.47;1720284;79;21070;-89
2021/09/12 03:30:00;;;;;;;11.75;6.92;;;;;;;6.48;96.49;93328.33;1701430;81;21073;-91
2021/09/12 03:32:27;;;;;;;11.48;7.67;;;;;;;6.48;96.64;93324.86;1733402;81;21050;-87
2021/09/12 03:34:54;;;;;;;11.63;7.58;;;;;;;6.45;96.41;93326.36;1682664;82;21078;-92
2021/09/12 03:37:22;;;;;;;11.63;8.20;;;;;;;6.38;96.20;93327.64;1738480;80;21118;-88
2021/09/12 03:39:54;;;;;;;11.80;7.50;;;;;;;6.31;96.13;93331.61;1751495;80;21030;-91
2021/09/12 03:42:21;;;;;;;9.80;7.00;;;;;;;6.22;96.34;93337.31;1736925;80;21086;-91
2021/09/12 03:44:48;;;;;;;9.23;6.47;;;;;;;6.16;96.89;93333.38;1748727;80;21157;-89
2021/09/12 03:47:15;;;;;;;13.65;9.08;;;;;;;6.14;97.12;93330.86;1748829;80;22257;-91
2021/09/12 03:49:42;;;;;;;15.53;9.23;;;;;;;6.08;97.29;93331.75;1719900;81;21677;-87
2021/09/12 03:52:09;;;;;;;11.95;8.53;;;;;;;6.09;97.35;93333.30;1738733;80;20960;-87
2021/09/12 03:54:36;;;;;;;13.90;8.43;;;;;;;6.08;97.14;93324.42;1759136;80;20979;-90
2021/09/12 03:57:03;;;;;;;13.15;9.05;;;;;;;6.07;97.16;93326.93;1758030;80;21084;-88
2021/09/12 03:59:31;;;;;;;9.20;7.17;;;;;;;6.07;97.10;93330.98;1750388;80;21875;-86
2021/09/12 04:01:58;;;;;;;9.18;7.83;;;;;;;6.07;97.27;93329.63;1755629;80;21444;-89
2021/09/12 04:04:25;;;;;;;10.03;7.33;;;;;;;6.07;97.28;93333.68;1752944;80;21053;-89
2021/09/12 04:06:52;;;;;;;9.93;6.85;;;;;;;6.07;97.47;93328.86;1724378;80;21048;-87
2021/09/12 04:09:20;;;;;;;14.58;7.35;;;;;;;6.07;97.41;93335.61;1700822;80;21058;-87
2021/09/12 04:11:47;;;;;;;11.90;7.90;;;;;;;6.06;97.59;93331.36;1722356;80;21587;-87
2021/09/12 04:14:13;;;;;;;13.58;8.00;;;;;;;6.05;97.69;93338.66;1749649;80;21010;-90
2021/09/12 04:16:40;;;;;;;10.50;7.20;;;;;;;6.05;97.64;93326.50;1749624;80;21057;-90
2021/09/12 04:19:08;;;;;;;15.80;10.10;;;;;;;6.06;97.71;93336.76;1750212;79;21710;-87
2021/09/12 04:21:38;;;;;;;14.30;11.73;;;;;;;6.04;97.67;93334.41;1747146;80;21547;-90
2021/09/12 04:24:05;;;;;;;11.73;8.48;;;;;;;6.05;97.55;93337.88;1711150;81;21118;-90
2021/09/12 04:26:31;;;;;;;13.98;7.80;;;;;;;6.00;97.42;93337.64;1708305;82;21550;-89
2021/09/12 04:28:58;;;;;;;8.08;6.40;;;;;;;5.96;97.50;93332.77;1742127;80;21102;-87
2021/09/12 04:31:25;;;;;;;10.00;7.60;;;;;;;5.94;97.48;93332.37;1693456;81;21082;-88
2021/09/12 04:33:51;;;;;;;14.05;6.67;;;;;;;5.93;97.63;93341.60;1716018;80;21057;-89
2021/09/12 04:36:18;;;;;;;10.60;7.62;;;;;;;5.95;97.82;93336.62;1730345;80;21111;-87
2021/09/12 04:38:44;;;;;;;11.65;8.25;;;;;;;6.00;97.87;93342.27;1687697;80;21079;-87
2021/09/12 04:41:11;;;;;;;11.08;7.03;;;;;;;6.02;97.88;93340.77;1733555;81;21085;-89
2021/09/12 04:43:37;;;;;;;9.90;7.70;;;;;;;6.06;97.97;93342.16;1698179;81;21042;-90
2021/09/12 04:46:05;;;;;;;20.20;9.80;;;;;;;6.06;97.84;93346.98;1737070;80;21062;-88
2021/09/12 04:48:32;;;;;;;19.23;10.03;;;;;;;6.06;97.78;93344.28;1751956;79;21111;-89
2021/09/12 04:50:58;;;;;;;22.15;13.68;;;;;;;6.08;97.88;93342.55;1751940;80;21041;-90
2021/09/12 04:53:25;;;;;;;24.05;12.43;;;;;;;6.08;97.84;93346.02;1725317;80;21046;-89
2021/09/12 04:55:51;;;;;;;13.28;8.98;;;;;;;6.15;97.87;93340.52;1742058;80;21695;-90
2021/09/12 04:58:17;;;;;;;11.45;9.38;;;;;;;6.23;97.88;93340.22;1705818;80;21098;-90
2021/09/12 05:00:44;;;;;;;13.43;9.00;;;;;;;6.33;97.95;93336.09;1674013;83;21055;-89
2021/09/12 05:03:12;;;;;;;11.30;7.60;;;;;;;6.46;97.83;93335.24;1705220;81;21336;-89
2021/09/12 05:05:38;;;;;;;10.48;5.92;;;;;;;6.59;97.50;93337.13;1678482;83;21407;-89
2021/09/12 05:08:05;;;;;;;7.08;5.35;;;;;;;6.71;97.01;93334.14;1726798;81;21057;-89
2021/09/12 05:10:32;;;;;;;7.40;5.72;;;;;;;6.85;96.60;93333.50;1729131;81;21267;-90
2021/09/12 05:13:01;;;;;;;7.95;5.50;;;;;;;6.95;95.84;93336.84;1731891;80;21553;-88
2021/09/12 05:15:28;;;;;;;6.47;4.60;;;;;;;7.05;95.35;93332.11;1726523;81;21066;-88
2021/09/12 05:20:26;;;;;;;14.30;5.78;;;;;;;7.30;94.09;93335.02;1628842;86;21063;-88
2021/09/12 05:22:52;;;;;;;10.20;5.45;;;;;;;7.42;93.94;93329.87;1678413;82;21066;-91
2021/09/12 05:25:18;;;;;;;7.33;5.05;;;;;;;7.59;92.94;93330.54;1682040;83;21097;-90
2021/09/12 05:27:46;;;;;;;10.00;6.00;;;;;;;7.74;92.15;93336.81;1675001;83;21067;-90
2021/09/12 05:30:15;;;;;;;6.95;5.78;;;;;;;7.86;91.43;93333.00;1687774;83;21105;-90
2021/09/12 05:32:45;;;;;;;6.17;5.08;;;;;;;7.97;91.16;93333.83;1684051;82;21149;-89
2021/09/12 05:35:10;;;;;;;8.80;6.12;;;;;;;8.04;90.93;93326.50;1683017;83;21090;-90
2021/09/12 05:37:36;;;;;;;9.28;6.25;;;;;;;8.17;90.87;93331.60;1704042;81;21116;-90
2021/09/12 05:40:04;;;;;;;10.25;7.30;;;;;;;8.30;90.85;93329.31;1703384;81;21832;-90
2021/09/12 05:42:32;;;;;;;8.65;7.00;;;;;;;8.39;90.17;93326.48;1717644;81;21414;-90
2021/09/12 05:45:01;;;;;;;8.83;6.40;;;;;;;8.46;89.33;93329.22;1720878;81;21068;-92
2021/09/12 05:47:30;;;;;;;8.90;6.58;;;;;;;8.49;89.00;93327.66;1692758;82;21709;-87
2021/09/12 05:49:58;;;;;;;9.85;6.78;;;;;;;8.58;89.15;93325.95;1717042;81;21462;-91
2021/09/12 05:52:26;;;;;;;7.58;6.00;;;;;;;8.68;88.40;93328.66;1716636;81;21155;-89
2021/09/12 05:54:52;;;;;;;7.22;5.83;;;;;;;8.77;88.15;93324.81;1696784;81;21148;-90
2021/09/12 05:57:20;;;;;;;8.90;6.80;;;;;;;8.87;88.17;93322.09;1694101;82;21694;-91
2021/09/12 05:59:47;;;;;;;5.72;5.12;;;;;;;8.98;88.16;93328.88;1717168;80;21524;-88
2021/09/12 06:02:16;;;;;;;10.08;5.85;;;;;;;9.09;88.55;93332.37;1719990;81;21115;-87
2021/09/12 06:04:43;;;;;;;7.60;5.87;;;;;;;9.27;88.94;93322.89;1690068;82;21094;-89
2021/09/12 06:07:10;;;;;;;6.90;5.37;;;;;;;9.48;88.46;93329.66;1717336;81;21497;-89
2021/09/12 06:09:38;;;;;;;5.95;4.80;;;;;;;9.81;87.99;93321.44;1718477;81;21360;-91
2021/09/12 06:12:07;;;;;;;7.37;5.03;;;;;;;10.19;86.85;93319.19;1685602;83;21092;-91
2021/09/12 06:14:36;;;;;;;8.10;5.17;;;;;;;10.43;86.16;93313.47;1717340;81;21094;-89
2021/09/12 06:17:06;;;;;;;9.98;5.12;;;;;;;10.63;84.98;93312.97;1703719;82;21107;-89
2021/09/12 06:19:36;;;;;;;5.65;4.75;;;;;;;10.75;84.02;93309.02;1699464;82;21074;-89
2021/09/12 06:22:04;;;;;;;6.78;5.08;;;;;;;10.80;83.45;93306.66;1711187;81;21095;-90
2021/09/12 06:24:30;;;;;;;9.40;5.20;;;;;;;10.89;83.39;93304.84;1710201;82;21124;-90
2021/09/12 06:26:58;;;;;;;14.05;5.03;;;;;;;11.03;83.77;93306.70;1714098;82;21786;-90
2021/09/12 06:29:25;;;;;;;7.08;5.08;;;;;;;11.19;81.31;93303.64;1689586;82;21576;-89
2021/09/12 06:31:52;;;;;;;7.12;4.97;;;;;;;11.38;80.11;93305.62;1704571;81;21135;-88
2021/09/12 06:34:18;;;;;;;8.70;5.53;;;;;;;11.59;79.17;93305.44;1683903;83;21090;-90
2021/09/12 06:36:46;;;;;;;7.90;4.83;;;;;;;11.79;79.09;93300.77;1718610;81;21534;-89
2021/09/12 06:39:14;;;;;;;7.30;5.12;;;;;;;11.98;79.42;93300.78;1717357;81;21082;-88
2021/09/12 06:41:41;;;;;;;7.20;5.25;;;;;;;12.17;78.68;93304.25;1687761;81;21135;-88
2021/09/12 06:44:08;;;;;;;8.63;5.62;;;;;;;12.34;78.72;93290.23;1703778;81;21081;-87
2021/09/12 06:46:35;;;;;;;8.60;5.78;;;;;;;12.49;77.93;93290.83;1715125;81;21124;-88
2021/09/12 06:49:02;;;;;;;8.35;5.67;;;;;;;12.64;77.98;93291.59;1711512;82;21093;-87
2021/09/12 06:53:56;;;;;;;10.53;5.30;;;;;;;13.10;75.62;93288.00;1718837;81;21140;-87
2021/09/12 06:56:24;;;;;;;9.65;6.17;;;;;;;13.45;75.19;93295.45;1691033;83;21126;-87
2021/09/12 06:58:51;;;;;;;7.00;5.35;;;;;;;13.88;73.53;93290.02;1713755;81;21215;-87
2021/09/12 07:01:17;;;;;;;7.28;4.92;;;;;;;14.38;71.64;93286.91;1692283;82;21716;-89
2021/09/12 07:03:46;;;;;;;8.48;6.08;;;;;;;14.79;70.32;93287.22;1690286;82;21282;-89
2021/09/12 07:06:12;;;;;;;10.48;5.45;;;;;;;15.02;67.20;93289.05;1713919;81;21152;-87
2021/09/12 07:08:43;;;;;;;9.58;5.65;;;;;;;15.19;66.08;93283.57;1718298;81;21164;-87
2021/09/12 07:11:13;;;;;;;7.58;4.87;;;;;;;15.29;66.71;93286.06;1697393;81;21077;-88
2021/09/12 07:13:39;;;;;;;10.48;6.45;;;;;;;15.36;65.20;93289.23;1701708;81;21120;-88
2021/09/12 07:16:06;;;;;;;9.20;5.85;;;;;;;15.43;65.84;93288.30;1718543;81;21114;-89
2021/09/12 07:18:34;;;;;;;9.73;6.10;;;;;;;15.51;64.58;93286.92;1691918;81;21444;-86
2021/09/12 07:21:00;;;;;;;7.17;4.97;;;;;;;15.62;64.97;93284.68;1715064;81;21157;-86
2021/09/12 07:23:28;;;;;;;10.25;5.28;;;;;;;15.73;63.42;93283.84;1719720;81;21045;-86
2021/09/12 07:25:55;;;;;;;6.75;5.22;;;;;;;15.83;62.64;93280.63;1703555;81;21079;-87
2021/09/12 07:28:22;;;;;;;8.58;5.15;;;;;;;15.93;62.53;93288.42;1692175;82;21040;-87
2021/09/12 07:30:51;;;;;;;8.80;5.60;;;;;;;16.02;62.10;93285.81;1714126;80;21134;-89
2021/09/12 07:33:18;;;;;;;7.08;5.33;;;;;;;16.13;61.65;93278.67;1698021;82;21108;-86
2021/09/12 07:35:45;;;;;;;7.55;5.35;;;;;;;16.23;61.28;93278.99;1718055;79;21034;-88
2021/09/12 07:38:12;;;;;;;10.30;5.58;;;;;;;16.31;61.10;93275.45;1716704;82;20995;-87
2021/09/12 07:40:40;;;;;;;7.58;4.92;;;;;;;16.39;60.62;93281.66;1688053;82;21231;-86
2021/09/12 07:43:07;;;;;;;7.03;5.00;;;;;;;16.43;59.41;93280.95;1662565;83;21178;-87
2021/09/12 07:45:34;;;;;;;7.20;4.85;;;;;;;16.48;58.86;93276.92;1719769;81;21012;-86
2021/09/12 07:48:01;;;;;;;5.78;4.50;;;;;;;16.50;58.19;93277.25;1713176;82;21081;-87
2021/09/12 07:50:28;;;;;;;6.60;4.35;;;;;;;16.55;58.00;93275.35;1684342;81;21092;-86
2021/09/12 07:52:57;;;;;;;6.10;4.95;;;;;;;16.62;57.29;93272.38;1723533;81;21091;-88
2021/09/12 07:55:26;;;;;;;5.55;4.62;;;;;;;16.70;56.20;93270.22;1718322;81;21129;-89
2021/09/12 07:57:54;;;;;;;7.35;4.87;;;;;;;16.81;56.42;93276.77;1718324;81;21061;-89
2021/09/12 08:00:20;;;;;;;8.30;5.30;;;;;;;16.88;56.31;93268.32;1695528;80;21077;-86
2021/09/12 08:02:49;;;;;;;5.85;4.70;;;;;;;16.99;57.33;93271.51;1719800;81;21711;-86
2021/09/12 08:05:17;;;;;;;8.65;4.78;;;;;;;17.08;56.40;93270.87;1721688;80;21364;-90
2021/09/12 08:07:44;;;;;;;6.85;5.05;;;;;;;17.17;56.93;93270.36;1720540;80;21072;-87
2021/09/12 08:10:11;;;;;;;9.95;5.90;;;;;;;17.23;56.74;93266.47;1720850;81;21072;-85
2021/09/12 08:12:38;;;;;;;7.15;5.03;;;;;;;17.30;56.57;93265.45;1719895;81;21047;-88
2021/09/12 08:15:06;;;;;;;10.18;5.75;;;;;;;17.35;56.84;93264.91;1697376;82;21153;-87
2021/09/12 08:17:34;;;;;;;7.12;5.25;;;;;;;17.42;56.92;93264.07;1708759;81;21066;-88
2021/09/12 08:20:04;;;;;;;8.48;5.20;;;;;;;17.47;56.68;93264.11;1714341;81;21085;-91
2021/09/12 08:22:30;;;;;;;17.60;5.97;;;;;;;17.46;57.07;93264.72;1720624;82;21056;-90
2021/09/12 08:24:58;;;;;;;8.18;5.17;;;;;;;17.42;57.04;93261.94;1717911;81;20991;-88
2021/09/12 08:27:24;;;;;;;7.22;5.37;;;;;;;17.39;57.47;93261.44;1725173;81;21394;-91
2021/09/12 08:29:51;;;;;;;6.50;4.72;;;;;;;17.41;57.12;93261.17;1716595;81;21075;-88
2021/09/12 08:32:18;;;;;;;8.00;5.40;;;;;;;17.46;56.45;93263.95;1714622;81;21086;-89
2021/09/12 08:34:45;;;;;;;11.93;7.10;;;;;;;17.58;55.91;93252.77;1719612;81;21043;-89
2021/09/12 08:37:11;;;;;;;9.25;6.97;;;;;;;17.71;56.30;93247.98;1713552;81;21113;-90
2021/09/12 08:39:38;;;;;;;8.55;5.90;;;;;;;17.82;56.47;93247.66;1720356;81;21088;-90
2021/09/12 08:42:05;;;;;;;9.65;5.03;;;;;;;17.90;55.89;93244.23;1693186;81;21789;-89
2021/09/12 08:44:31;;;;;;;9.05;5.28;;;;;;;17.96;55.28;93249.92;1705324;81;20995;-87
2021/09/12 08:46:58;;;;;;;13.13;5.47;;;;;;;18.03;55.47;93249.67;1716514;80;21069;-89
2021/09/12 08:49:24;;;;;;;6.62;5.20;;;;;;;18.10;55.25;93245.91;1714702;81;21066;-85
2021/09/12 08:51:51;;;;;;;4.87;4.33;;;;;;;18.19;54.96;93247.34;1653987;84;21747;-91
2021/09/12 08:54:18;;;;;;;6.72;5.30;;;;;;;18.26;52.26;93237.46;1713854;81;21091;-90
2021/09/12 08:56:44;;;;;;;9.68;6.35;;;;;;;18.35;52.97;93241.64;1718968;82;21651;-90
2021/09/12 08:59:29;;;;;;;10.58;9.35;;;;;;;18.44;50.90;93246.45;1718435;79;21057;-87
2021/09/12 09:01:58;;;;;;;6.45;5.60;;;;;;;18.53;50.08;93238.23;1722300;81;21289;-89
2021/09/12 09:04:33;;;;;;;6.53;4.85;;;;;;;18.63;48.30;93242.59;1721943;81;21567;-86
2021/09/12 09:07:07;;;;;;;7.10;3.83;;;;;;;18.73;48.14;93242.65;1684844;82;21116;-86
2021/09/12 09:09:40;;;;;;;12.37;4.65;;;;;;;18.80;44.66;93242.38;1697833;82;21066;-87
2021/09/12 09:12:23;;;;;;;6.12;3.42;;;;;;;18.86;44.17;93240.59;1708886;82;21030;-90
2021/09/12 09:15:12;;;;;;;6.60;3.62;;;;;;;18.89;42.62;93245.20;1706692;82;21077;-88
2021/09/12 09:17:53;;;;;;;13.35;3.90;;;;;;;18.92;40.19;93243.68;1705670;82;21070;-87
2021/09/12 09:20:30;;;;;;;5.95;3.98;;;;;;;18.99;40.49;93240.48;1708418;81;21580;-90
2021/09/12 09:22:57;;;;;;;8.05;3.17;;;;;;;19.04;40.01;93239.29;1688870;83;20995;-87
2021/09/12 09:25:24;;;;;;;5.22;3.10;;;;;;;19.09;39.82;93238.69;1666540;83;21110;-85
2021/09/12 09:28:09;;;;;;;3.15;2.67;;;;;;;19.14;38.55;93242.24;1664324;85;21043;-89
2021/09/12 09:30:49;;;;;;;4.58;2.90;;;;;;;19.20;36.00;93236.12;1690561;83;21070;-85
2021/09/12 09:33:24;;;;;;;6.20;2.50;;;;;;;19.26;34.06;93232.94;1696840;81;21202;-85
2021/09/12 09:36:04;;;;;;;6.80;3.02;;;;;;;19.27;33.52;93238.60;1704355;81;21331;-85
2021/09/12 09:38:37;;;;;;;2.45;2.25;;;;;;;19.27;30.91;93240.74;1716643;82;21074;-88
2021/09/12 09:41:19;;;;;;;5.20;2.30;;;;;;;19.30;30.33;93229.42;1708457;82;21355;-88
2021/09/12 09:44:00;;;;;;;2.72;2.37;;;;;;;19.32;30.18;93233.24;1685232;83;21355;-89
2021/09/12 09:46:29;;;;;;;4.62;2.47;;;;;;;19.38;30.66;93230.67;1715705;81;21128;-87
2021/09/12 09:48:55;;;;;;;2.80;2.50;;;;;;;19.44;30.93;93227.45;1662748;83;21157;-85
2021/09/12 09:51:22;;;;;;;5.12;2.95;;;;;;;19.50;30.34;93229.77;1703208;82;21098;-88
2021/09/12 09:53:50;;;;;;;3.37;2.90;;;;;;;19.56;30.90;93225.81;1714702;82;20994;-89
2021/09/12 09:56:18;;;;;;;5.70;2.85;;;;;;;19.59;30.93;93226.25;1735071;80;38099;-89
2021/09/12 09:58:44;;;;;;;3.70;3.10;;;;;;;19.65;30.62;93235.49;1721606;81;21643;-86
2021/09/12 10:01:11;;;;;;;6.55;3.70;;;;;;;19.70;32.08;93224.46;1722783;81;21093;-91
2021/09/12 10:03:37;;;;;;;7.83;4.20;;;;;;;19.76;34.64;93222.64;1714234;79;21026;-89
2021/09/12 10:06:03;;;;;;;6.20;4.22;;;;;;;19.79;33.49;93225.86;1718808;82;21069;-86
2021/09/12 10:08:30;;;;;;;4.92;3.55;;;;;;;19.81;33.21;93217.27;1696576;83;21061;-90
2021/09/12 10:10:58;;;;;;;5.22;4.42;;;;;;;19.85;34.18;93221.25;1691791;82;21660;-89
2021/09/12 10:13:25;;;;;;;6.87;4.00;;;;;;;19.87;36.21;93218.81;1699443;82;21069;-89
2021/09/12 10:15:56;;;;;;;6.87;3.92;;;;;;;19.91;37.02;93220.80;1696003;81;21076;-88
2021/09/12 10:18:26;;;;;;;5.83;3.75;;;;;;;19.95;35.97;93217.89;1708057;82;21226;-86
2021/09/12 10:20:55;;;;;;;7.45;3.77;;;;;;;20.00;36.62;93215.27;1707242;82;21348;-89
2021/09/12 10:23:23;;;;;;;5.42;3.37;;;;;;;20.05;36.25;93212.53;1707837;82;21082;-89
2021/09/12 10:25:57;;;;;;;3.62;3.10;;;;;;;20.06;33.98;93212.68;1666890;82;21044;-90
2021/09/12 10:28:34;;;;;;;8.18;3.25;;;;;;;20.09;34.18;93217.28;1692409;81;21109;-89
2021/09/12 10:31:28;;;;;;;5.22;3.50;;;;;;;20.10;32.87;93218.19;1694546;82;21087;-88
2021/09/12 10:34:11;;;;;;;4.45;3.50;;;;;;;20.13;36.34;93222.03;1696434;82;21115;-89
2021/09/12 10:36:41;;;;;;;7.45;4.03;;;;;;;20.17;37.39;93221.88;1712605;81;21133;-89
2021/09/12 10:39:34;;;;;;;6.17;3.85;;;;;;;20.17;36.18;93218.50;1718498;81;21715;-90
2021/09/12 10:42:15;;;;;;;4.35;3.92;;;;;;;20.16;35.67;93216.98;1723018;81;21097;-89
2021/09/12 10:44:42;;;;;;;8.90;3.87;;;;;;;20.22;37.78;93216.50;1719611;81;21523;-92
2021/09/12 10:47:10;;;;;;;5.87;3.65;;;;;;;20.25;36.87;93216.95;1696303;81;21506;-86
2021/09/12 10:49:38;;;;;;;8.30;4.72;;;;;;;20.26;38.62;93220.48;1717682;81;21037;-88
2021/09/12 10:52:10;;;;;;;9.33;4.75;;;;;;;20.22;39.43;93212.36;1709250;81;21033;-87
2021/09/12 10:55:09;;;;;;;8.10;4.08;;;;;;;20.26;39.82;93205.30;1695299;82;21058;-91
2021/09/12 10:57:39;;;;;;;6.53;4.03;;;;;;;20.34;40.09;93210.65;1724396;79;21613;-86
2021/09/12 11:00:11;;;;;;;7.30;4.72;;;;;;;20.37;40.45;93211.88;1715732;81;21093;-90
2021/09/12 11:02:42;;;;;;;8.35;4.72;;;;;;;20.40;40.14;93214.33;1717311;81;21248;-89
2021/09/12 11:05:26;;;;;;;15.68;5.95;;;;;;;20.46;40.95;93214.45;1714272;80;21014;-89
2021/09/12 11:07:54;;;;;;;7.47;4.72;;;;;;;20.51;40.03;93206.98;1691784;82;21073;-87
2021/09/12 11:10:41;;;;;;;8.80;4.53;;;;;;;20.56;39.63;93206.34;1718867;81;21038;-87
2021/09/12 11:13:08;;;;;;;7.90;5.28;;;;;;;20.60;39.82;93208.33;1719890;80;21100;-89
2021/09/12 11:15:35;;;;;;;8.25;5.20;;;;;;;20.63;38.56;93206.64;1720912;80;22062;-88
2021/09/12 11:18:03;;;;;;;7.60;4.47;;;;;;;20.68;40.10;93197.72;1707502;82;21042;-89
2021/09/12 11:20:42;;;;;;;10.53;6.42;;;;;;;20.73;39.66;93197.86;1688930;82;21084;-90
2021/09/12 11:23:10;;;;;;;11.12;5.30;;;;;;;20.77;40.10;93200.47;1703241;82;21069;-86
2021/09/12 11:25:37;;;;;;;8.83;4.30;;;;;;;20.79;40.75;93196.60;1689664;83;21085;-91
2021/09/12 11:28:06;;;;;;;7.58;4.62;;;;;;;20.82;40.56;93203.34;1687778;81;21068;-89
2021/09/12 11:30:34;;;;;;;6.72;5.10;;;;;;;20.88;41.44;93201.35;1672377;83;21600;-89
2021/09/12 11:33:02;;;;;;;7.87;4.65;;;;;;;20.91;41.24;93195.66;1694217;81;21073;-86
2021/09/12 11:35:29;;;;;;;8.43;4.20;;;;;;;20.95;41.87;93188.55;1685343;83;21800;-92
2021/09/12 11:38:05;;;;;;;12.80;4.92;;;;;;;21.00;41.33;93191.46;1683234;82;21145;-92
2021/09/12 11:40:33;;;;;;;9.68;4.58;;;;;;;21.06;41.36;93186.84;1683043;82;21042;-87
2021/09/12 11:43:15;;;;;;;8.15;4.92;;;;;;;21.10;40.96;93195.72;1719241;81;21053;-89
2021/09/12 11:45:41;;;;;;;7.05;5.05;;;;;;;21.10;40.91;93194.96;1725788;81;21071;-89
2021/09/12 11:48:09;;;;;;;12.40;5.78;;;;;;;21.10;40.27;93189.44;1682502;82;21085;-90
2021/09/12 11:50:37;;;;;;;9.05;4.75;;;;;;;21.14;41.26;93190.03;1694901;82;21110;-90